Beckley, WV

4:44 PM EDT on August 21, 2014 (GMT -0400)
Southeast Beckley | Change Station
CLOSE
Current Station
Personal Weather Station
Location: Beckley, WV
Elevation: 2365 ft
Nearby Weather Stations
Active Advisory: Special Statement

Elev 2365 ft 37.76 °N, 81.16 °W | Updated 1 second ago

Overcast
Overcast
77.9 °F
Feels Like 80 °F
N
3.5
Wind Variable Wind from South
Gusts 3.5 mph

Today
High -- | Low -- °F
--% Chance of Precip.
Yesterday
High -- | Low -- °F
Precip. -- in
6:45 AM 8:09 PM
Waning Crescent, 12% visible
Pressure 30.16 in
Visibility 5.0 miles
Clouds Scattered Clouds 2900 ft
Mostly Cloudy 3900 ft
Overcast 6500 ft
Heat Index 80 °F
Dew Point 67 °F
Humidity 69%
Rainfall 0.00 in
Snow Depth Not available.
UV 2 out of 12
Pollen 9.30 out of 12
Air Quality Not available.
Flu Activity Not available.
SPECI KBKW 212038Z AUTO 34009KT 5SM -RA BR SCT029 BKN039 OVC065 22/21 A3016 RMK AO2 VIS 1 3/4 RWY19 RAB20 P0015 T02220206 TSNO

More Conditions Fewer Conditions

Pressure 30.16 in
Visibility 5.0 miles
Clouds Scattered Clouds 2900 ft
Mostly Cloudy 3900 ft
Overcast 6500 ft
Heat Index 80 °F
Dew Point 67 °F
Humidity 69%
Rainfall 0.00 in
Snow Depth Not available.
UV 2 out of 12
Pollen 9.30 out of 12
Air Quality Not available.
Flu Activity Not available.
SPECI KBKW 212038Z AUTO 34009KT 5SM -RA BR SCT029 BKN039 OVC065 22/21 A3016 RMK AO2 VIS 1 3/4 RWY19 RAB20 P0015 T02220206 TSNO

More Conditions Fewer Conditions

10-Day Weather Forecast

Almanac

Astronomy

Aug. 21, 2014 Rise Set
Actual Time 6:45 AM EDT 8:09 PM EDT
Civil Twilight 6:17 AM EDT 8:37 PM EDT
Nautical Twilight 5:44 AM EDT 9:10 PM EDT
Astronomical Twilight 5:10 AM EDT 9:44 PM EDT
Moon 3:16 AM EDT 5:36 PM EDT
Length of Visible Light 14h 19m
Length of Day
13h 24m
Tomorrow will be 2m 14s shorter.
Waning Crescent, 12% of the Moon is Illuminated
Today
Waning Crescent
Aug 25
New
Sep 2
First Quarter
Sep 8
Full
Sep 15
Last Quarter

Today's Extremes

State Highs State Lows

Community

WunderPhotos

Upload Photos

1,746,017 photos uploaded!

WunderBlogs® & News

Nearby

Snow Depth

Station Depth Elevation
No new snow has been reported.

Earthquake Activity

City Distance Mag. Time & Date
No recent earthquake activity has been reported nearby.
Minimum magnitude displayed is 2.5.

Coastal Water Temperatures

Place Temperature
No Stations Reporting

Nearby Weather Stations